sensor_id;sensor_type;location;lat;lon;timestamp;temperature;humidity
7902;DHT22;3996;49.674;10.716;2023-12-20T00:00:51;6.10;66.30
7902;DHT22;3996;49.674;10.716;2023-12-20T00:03:16;6.10;66.90
7902;DHT22;3996;49.674;10.716;2023-12-20T00:05:42;6.00;67.20
7902;DHT22;3996;49.674;10.716;2023-12-20T00:08:07;6.00;66.90
7902;DHT22;3996;49.674;10.716;2023-12-20T00:10:33;6.10;66.50
7902;DHT22;3996;49.674;10.716;2023-12-20T00:12:58;6.10;67.10
7902;DHT22;3996;49.674;10.716;2023-12-20T00:15:24;6.00;67.80
7902;DHT22;3996;49.674;10.716;2023-12-20T00:17:49;6.00;68.70
7902;DHT22;3996;49.674;10.716;2023-12-20T00:20:15;6.00;69.20
7902;DHT22;3996;49.674;10.716;2023-12-20T00:22:40;6.00;69.50
7902;DHT22;3996;49.674;10.716;2023-12-20T00:25:07;6.00;69.10
7902;DHT22;3996;49.674;10.716;2023-12-20T00:27:32;6.00;69.50
7902;DHT22;3996;49.674;10.716;2023-12-20T00:29:58;6.00;69.80
7902;DHT22;3996;49.674;10.716;2023-12-20T00:32:23;6.00;70.80
7902;DHT22;3996;49.674;10.716;2023-12-20T00:34:49;6.00;71.10
7902;DHT22;3996;49.674;10.716;2023-12-20T00:37:14;6.00;71.30
7902;DHT22;3996;49.674;10.716;2023-12-20T00:39:40;6.00;71.00
7902;DHT22;3996;49.674;10.716;2023-12-20T00:42:05;6.00;71.20
7902;DHT22;3996;49.674;10.716;2023-12-20T00:44:30;6.00;71.10
7902;DHT22;3996;49.674;10.716;2023-12-20T00:46:57;6.00;71.20
7902;DHT22;3996;49.674;10.716;2023-12-20T00:49:22;6.00;71.10
7902;DHT22;3996;49.674;10.716;2023-12-20T00:51:48;6.00;71.50
7902;DHT22;3996;49.674;10.716;2023-12-20T00:54:15;6.00;71.10
7902;DHT22;3996;49.674;10.716;2023-12-20T00:56:41;6.00;71.20
7902;DHT22;3996;49.674;10.716;2023-12-20T00:59:07;6.00;71.10
7902;DHT22;3996;49.674;10.716;2023-12-20T01:01:32;6.00;71.10
7902;DHT22;3996;49.674;10.716;2023-12-20T01:03:58;6.00;71.10
7902;DHT22;3996;49.674;10.716;2023-12-20T01:06:24;6.00;70.70
7902;DHT22;3996;49.674;10.716;2023-12-20T01:08:49;6.00;71.10
7902;DHT22;3996;49.674;10.716;2023-12-20T01:11:18;6.00;70.20
7902;DHT22;3996;49.674;10.716;2023-12-20T01:13:43;5.90;71.00
7902;DHT22;3996;49.674;10.716;2023-12-20T01:16:10;6.00;71.40
7902;DHT22;3996;49.674;10.716;2023-12-20T01:18:36;6.00;70.60
7902;DHT22;3996;49.674;10.716;2023-12-20T01:21:02;5.90;69.50
7902;DHT22;3996;49.674;10.716;2023-12-20T01:23:28;5.90;69.70
7902;DHT22;3996;49.674;10.716;2023-12-20T01:25:54;5.90;70.00
7902;DHT22;3996;49.674;10.716;2023-12-20T01:28:19;5.90;70.20
7902;DHT22;3996;49.674;10.716;2023-12-20T01:30:45;5.90;69.00
7902;DHT22;3996;49.674;10.716;2023-12-20T01:33:10;5.90;68.60
7902;DHT22;3996;49.674;10.716;2023-12-20T01:35:36;5.90;67.30
7902;DHT22;3996;49.674;10.716;2023-12-20T01:38:02;5.90;67.00
7902;DHT22;3996;49.674;10.716;2023-12-20T01:40:28;5.90;67.80
7902;DHT22;3996;49.674;10.716;2023-12-20T01:45:25;5.80;68.20
7902;DHT22;3996;49.674;10.716;2023-12-20T01:47:51;5.80;67.50
7902;DHT22;3996;49.674;10.716;2023-12-20T01:50:17;5.80;66.80
7902;DHT22;3996;49.674;10.716;2023-12-20T01:52:42;5.80;67.70
7902;DHT22;3996;49.674;10.716;2023-12-20T01:55:09;5.80;66.70
7902;DHT22;3996;49.674;10.716;2023-12-20T01:57:41;5.70;66.80
7902;DHT22;3996;49.674;10.716;2023-12-20T02:00:08;5.70;66.90
7902;DHT22;3996;49.674;10.716;2023-12-20T02:02:35;5.80;66.30
7902;DHT22;3996;49.674;10.716;2023-12-20T02:05:02;5.80;65.70
7902;DHT22;3996;49.674;10.716;2023-12-20T02:07:29;5.80;65.40
7902;DHT22;3996;49.674;10.716;2023-12-20T02:09:56;5.80;65.90
7902;DHT22;3996;49.674;10.716;2023-12-20T02:12:21;5.80;64.80
7902;DHT22;3996;49.674;10.716;2023-12-20T02:14:47;5.70;65.70
7902;DHT22;3996;49.674;10.716;2023-12-20T02:17:13;5.70;66.30
7902;DHT22;3996;49.674;10.716;2023-12-20T02:19:38;5.60;65.40
7902;DHT22;3996;49.674;10.716;2023-12-20T02:22:10;5.60;65.70
7902;DHT22;3996;49.674;10.716;2023-12-20T02:24:36;5.70;65.80
7902;DHT22;3996;49.674;10.716;2023-12-20T02:27:01;5.60;66.10
7902;DHT22;3996;49.674;10.716;2023-12-20T02:29:27;5.60;67.00
7902;DHT22;3996;49.674;10.716;2023-12-20T02:31:52;5.60;66.80
7902;DHT22;3996;49.674;10.716;2023-12-20T02:34:18;5.60;66.80
7902;DHT22;3996;49.674;10.716;2023-12-20T02:36:43;5.60;67.40
7902;DHT22;3996;49.674;10.716;2023-12-20T02:39:09;5.60;67.70
7902;DHT22;3996;49.674;10.716;2023-12-20T02:41:34;5.60;67.20
7902;DHT22;3996;49.674;10.716;2023-12-20T02:44:01;5.60;66.60
7902;DHT22;3996;49.674;10.716;2023-12-20T02:46:26;5.60;66.60
7902;DHT22;3996;49.674;10.716;2023-12-20T02:48:51;5.60;66.40
7902;DHT22;3996;49.674;10.716;2023-12-20T02:51:17;5.60;66.30
7902;DHT22;3996;49.674;10.716;2023-12-20T02:53:42;5.60;66.00
7902;DHT22;3996;49.674;10.716;2023-12-20T02:56:08;5.60;65.90
7902;DHT22;3996;49.674;10.716;2023-12-20T02:58:33;5.60;64.90
7902;DHT22;3996;49.674;10.716;2023-12-20T03:00:59;5.50;66.00
7902;DHT22;3996;49.674;10.716;2023-12-20T03:03:25;5.50;65.80
7902;DHT22;3996;49.674;10.716;2023-12-20T03:05:51;5.50;65.90
7902;DHT22;3996;49.674;10.716;2023-12-20T03:08:17;5.50;66.80
7902;DHT22;3996;49.674;10.716;2023-12-20T03:10:42;5.50;66.70
7902;DHT22;3996;49.674;10.716;2023-12-20T03:13:08;5.50;66.10
7902;DHT22;3996;49.674;10.716;2023-12-20T03:15:33;5.50;65.60
7902;DHT22;3996;49.674;10.716;2023-12-20T03:17:59;5.40;65.70
7902;DHT22;3996;49.674;10.716;2023-12-20T03:20:24;5.40;66.00
7902;DHT22;3996;49.674;10.716;2023-12-20T03:22:51;5.40;65.30
7902;DHT22;3996;49.674;10.716;2023-12-20T03:25:17;5.40;65.80
7902;DHT22;3996;49.674;10.716;2023-12-20T03:27:42;5.40;66.20
7902;DHT22;3996;49.674;10.716;2023-12-20T03:30:08;5.40;66.80
7902;DHT22;3996;49.674;10.716;2023-12-20T03:32:33;5.40;66.90
7902;DHT22;3996;49.674;10.716;2023-12-20T03:34:59;5.40;66.10
7902;DHT22;3996;49.674;10.716;2023-12-20T03:37:24;5.40;66.20
7902;DHT22;3996;49.674;10.716;2023-12-20T03:39:50;5.40;65.00
7902;DHT22;3996;49.674;10.716;2023-12-20T03:42:15;5.40;65.40
7902;DHT22;3996;49.674;10.716;2023-12-20T03:44:41;5.40;64.10
7902;DHT22;3996;49.674;10.716;2023-12-20T03:47:06;5.40;64.20
7902;DHT22;3996;49.674;10.716;2023-12-20T03:49:32;5.40;64.80
7902;DHT22;3996;49.674;10.716;2023-12-20T03:51:57;5.30;65.50
7902;DHT22;3996;49.674;10.716;2023-12-20T03:54:23;5.30;66.10
7902;DHT22;3996;49.674;10.716;2023-12-20T03:56:49;5.30;66.10
7902;DHT22;3996;49.674;10.716;2023-12-20T03:59:14;5.30;65.50
7902;DHT22;3996;49.674;10.716;2023-12-20T04:01:43;5.30;66.30
7902;DHT22;3996;49.674;10.716;2023-12-20T04:04:08;5.30;65.90
7902;DHT22;3996;49.674;10.716;2023-12-20T04:06:34;5.30;65.70
7902;DHT22;3996;49.674;10.716;2023-12-20T04:08:59;5.30;66.00
7902;DHT22;3996;49.674;10.716;2023-12-20T04:11:25;5.30;65.70
7902;DHT22;3996;49.674;10.716;2023-12-20T04:13:50;5.30;65.50
7902;DHT22;3996;49.674;10.716;2023-12-20T04:16:16;5.30;65.00
7902;DHT22;3996;49.674;10.716;2023-12-20T04:18:41;5.30;65.20
7902;DHT22;3996;49.674;10.716;2023-12-20T04:21:07;5.30;65.40
7902;DHT22;3996;49.674;10.716;2023-12-20T04:23:32;5.30;65.20
7902;DHT22;3996;49.674;10.716;2023-12-20T04:25:58;5.20;65.40
7902;DHT22;3996;49.674;10.716;2023-12-20T04:28:23;5.20;66.10
7902;DHT22;3996;49.674;10.716;2023-12-20T04:30:49;5.20;66.00
7902;DHT22;3996;49.674;10.716;2023-12-20T04:33:14;5.20;65.40
7902;DHT22;3996;49.674;10.716;2023-12-20T04:35:40;5.20;65.60
7902;DHT22;3996;49.674;10.716;2023-12-20T04:38:08;5.20;66.00
7902;DHT22;3996;49.674;10.716;2023-12-20T04:40:34;5.20;66.60
7902;DHT22;3996;49.674;10.716;2023-12-20T04:42:59;5.20;66.50
7902;DHT22;3996;49.674;10.716;2023-12-20T04:45:25;5.20;66.50
7902;DHT22;3996;49.674;10.716;2023-12-20T04:47:51;5.20;66.50
7902;DHT22;3996;49.674;10.716;2023-12-20T04:50:16;5.20;66.50
7902;DHT22;3996;49.674;10.716;2023-12-20T04:52:42;5.20;67.00
7902;DHT22;3996;49.674;10.716;2023-12-20T04:55:08;5.20;67.20
7902;DHT22;3996;49.674;10.716;2023-12-20T04:57:34;5.20;67.50
7902;DHT22;3996;49.674;10.716;2023-12-20T04:59:59;5.20;67.30
7902;DHT22;3996;49.674;10.716;2023-12-20T05:02:25;5.20;67.60
7902;DHT22;3996;49.674;10.716;2023-12-20T05:04:50;5.20;67.30
7902;DHT22;3996;49.674;10.716;2023-12-20T05:07:16;5.20;66.90
7902;DHT22;3996;49.674;10.716;2023-12-20T05:09:41;5.20;66.50
7902;DHT22;3996;49.674;10.716;2023-12-20T05:12:07;5.20;66.70
7902;DHT22;3996;49.674;10.716;2023-12-20T05:14:33;5.20;67.10
7902;DHT22;3996;49.674;10.716;2023-12-20T05:16:58;5.20;66.60
7902;DHT22;3996;49.674;10.716;2023-12-20T05:19:24;5.20;67.60
7902;DHT22;3996;49.674;10.716;2023-12-20T05:21:50;5.20;68.30
7902;DHT22;3996;49.674;10.716;2023-12-20T05:24:15;5.20;67.90
7902;DHT22;3996;49.674;10.716;2023-12-20T05:26:41;5.20;68.00
7902;DHT22;3996;49.674;10.716;2023-12-20T05:29:06;5.20;67.50
7902;DHT22;3996;49.674;10.716;2023-12-20T05:31:32;5.20;68.20
7902;DHT22;3996;49.674;10.716;2023-12-20T05:33:57;5.20;69.10
7902;DHT22;3996;49.674;10.716;2023-12-20T05:36:23;5.20;69.30
7902;DHT22;3996;49.674;10.716;2023-12-20T05:38:49;5.20;69.30
7902;DHT22;3996;49.674;10.716;2023-12-20T05:41:14;5.20;69.50
7902;DHT22;3996;49.674;10.716;2023-12-20T05:43:39;5.20;69.70
7902;DHT22;3996;49.674;10.716;2023-12-20T05:46:05;5.20;69.80
7902;DHT22;3996;49.674;10.716;2023-12-20T05:48:30;5.20;70.40
7902;DHT22;3996;49.674;10.716;2023-12-20T05:50:56;5.20;70.40
7902;DHT22;3996;49.674;10.716;2023-12-20T05:53:22;5.30;70.00
7902;DHT22;3996;49.674;10.716;2023-12-20T05:55:48;5.30;69.30
7902;DHT22;3996;49.674;10.716;2023-12-20T05:58:13;5.30;69.20
7902;DHT22;3996;49.674;10.716;2023-12-20T06:00:39;5.30;70.00
7902;DHT22;3996;49.674;10.716;2023-12-20T06:03:05;5.30;70.50
7902;DHT22;3996;49.674;10.716;2023-12-20T06:05:30;5.30;70.00
7902;DHT22;3996;49.674;10.716;2023-12-20T06:07:56;5.30;70.20
7902;DHT22;3996;49.674;10.716;2023-12-20T06:10:26;5.30;70.50
7902;DHT22;3996;49.674;10.716;2023-12-20T06:12:52;5.30;70.50
7902;DHT22;3996;49.674;10.716;2023-12-20T06:15:18;5.30;70.50
7902;DHT22;3996;49.674;10.716;2023-12-20T06:17:43;5.30;70.50
7902;DHT22;3996;49.674;10.716;2023-12-20T06:20:09;5.30;70.60
7902;DHT22;3996;49.674;10.716;2023-12-20T06:22:35;5.30;70.20
7902;DHT22;3996;49.674;10.716;2023-12-20T06:25:01;5.40;70.60
7902;DHT22;3996;49.674;10.716;2023-12-20T06:27:28;5.40;70.10
7902;DHT22;3996;49.674;10.716;2023-12-20T06:29:54;5.40;70.20
7902;DHT22;3996;49.674;10.716;2023-12-20T06:32:19;5.40;71.00
7902;DHT22;3996;49.674;10.716;2023-12-20T06:34:45;5.40;71.10
7902;DHT22;3996;49.674;10.716;2023-12-20T06:37:10;5.40;70.70
7902;DHT22;3996;49.674;10.716;2023-12-20T06:39:36;5.40;72.80
7902;DHT22;3996;49.674;10.716;2023-12-20T06:42:01;5.50;72.40
7902;DHT22;3996;49.674;10.716;2023-12-20T06:44:27;5.50;71.60
7902;DHT22;3996;49.674;10.716;2023-12-20T06:46:52;5.40;70.90
7902;DHT22;3996;49.674;10.716;2023-12-20T06:49:18;5.40;71.30
7902;DHT22;3996;49.674;10.716;2023-12-20T06:51:43;5.40;71.70
7902;DHT22;3996;49.674;10.716;2023-12-20T06:54:09;5.40;71.60
7902;DHT22;3996;49.674;10.716;2023-12-20T06:56:34;5.40;71.20
7902;DHT22;3996;49.674;10.716;2023-12-20T06:59:00;5.40;71.30
7902;DHT22;3996;49.674;10.716;2023-12-20T07:01:25;5.40;71.80
7902;DHT22;3996;49.674;10.716;2023-12-20T07:03:51;5.50;71.40
7902;DHT22;3996;49.674;10.716;2023-12-20T07:06:16;5.40;71.40
7902;DHT22;3996;49.674;10.716;2023-12-20T07:08:42;5.50;71.80
7902;DHT22;3996;49.674;10.716;2023-12-20T07:11:08;5.50;71.50
7902;DHT22;3996;49.674;10.716;2023-12-20T07:13:33;5.50;71.00
7902;DHT22;3996;49.674;10.716;2023-12-20T07:15:59;5.50;71.20
7902;DHT22;3996;49.674;10.716;2023-12-20T07:18:24;5.50;72.00
7902;DHT22;3996;49.674;10.716;2023-12-20T07:20:50;5.40;72.20
7902;DHT22;3996;49.674;10.716;2023-12-20T07:23:15;5.50;72.40
7902;DHT22;3996;49.674;10.716;2023-12-20T07:25:41;5.50;72.00
7902;DHT22;3996;49.674;10.716;2023-12-20T07:28:06;5.50;72.10
7902;DHT22;3996;49.674;10.716;2023-12-20T07:30:32;5.50;71.80
7902;DHT22;3996;49.674;10.716;2023-12-20T07:32:57;5.60;73.10
7902;DHT22;3996;49.674;10.716;2023-12-20T07:35:23;5.60;72.00
7902;DHT22;3996;49.674;10.716;2023-12-20T07:37:48;5.60;71.40
7902;DHT22;3996;49.674;10.716;2023-12-20T07:40:14;5.60;71.90
7902;DHT22;3996;49.674;10.716;2023-12-20T07:42:42;5.60;71.80
7902;DHT22;3996;49.674;10.716;2023-12-20T07:45:07;5.60;71.70
7902;DHT22;3996;49.674;10.716;2023-12-20T07:47:34;5.60;72.00
7902;DHT22;3996;49.674;10.716;2023-12-20T07:49:59;5.60;72.10
7902;DHT22;3996;49.674;10.716;2023-12-20T07:52:25;5.70;71.60
7902;DHT22;3996;49.674;10.716;2023-12-20T07:54:51;5.70;70.80
7902;DHT22;3996;49.674;10.716;2023-12-20T07:57:17;5.70;70.10
7902;DHT22;3996;49.674;10.716;2023-12-20T07:59:42;5.70;69.80
7902;DHT22;3996;49.674;10.716;2023-12-20T08:02:09;5.70;69.40
7902;DHT22;3996;49.674;10.716;2023-12-20T08:04:35;5.70;69.60
7902;DHT22;3996;49.674;10.716;2023-12-20T08:07:00;5.70;69.70
7902;DHT22;3996;49.674;10.716;2023-12-20T08:09:26;5.70;70.00
7902;DHT22;3996;49.674;10.716;2023-12-20T08:11:51;5.70;70.20
7902;DHT22;3996;49.674;10.716;2023-12-20T08:14:17;5.70;69.80
7902;DHT22;3996;49.674;10.716;2023-12-20T08:16:42;5.70;70.10
7902;DHT22;3996;49.674;10.716;2023-12-20T08:19:08;5.70;69.00
7902;DHT22;3996;49.674;10.716;2023-12-20T08:21:33;5.70;68.30
7902;DHT22;3996;49.674;10.716;2023-12-20T08:23:59;5.70;68.60
7902;DHT22;3996;49.674;10.716;2023-12-20T08:26:26;5.70;68.40
7902;DHT22;3996;49.674;10.716;2023-12-20T08:28:51;5.70;67.30
7902;DHT22;3996;49.674;10.716;2023-12-20T08:31:17;5.70;67.20
7902;DHT22;3996;49.674;10.716;2023-12-20T08:33:43;5.70;66.40
7902;DHT22;3996;49.674;10.716;2023-12-20T08:36:09;6.10;66.00
7902;DHT22;3996;49.674;10.716;2023-12-20T08:38:34;6.90;57.90
7902;DHT22;3996;49.674;10.716;2023-12-20T08:41:00;7.20;53.70
7902;DHT22;3996;49.674;10.716;2023-12-20T08:43:26;7.50;51.20
7902;DHT22;3996;49.674;10.716;2023-12-20T08:45:52;7.70;48.90
7902;DHT22;3996;49.674;10.716;2023-12-20T08:48:17;7.80;47.30
7902;DHT22;3996;49.674;10.716;2023-12-20T08:50:43;8.10;46.40
7902;DHT22;3996;49.674;10.716;2023-12-20T08:53:08;8.20;43.50
7902;DHT22;3996;49.674;10.716;2023-12-20T08:55:34;8.20;42.30
7902;DHT22;3996;49.674;10.716;2023-12-20T08:57:59;8.70;39.90
7902;DHT22;3996;49.674;10.716;2023-12-20T09:00:25;8.60;39.50
7902;DHT22;3996;49.674;10.716;2023-12-20T09:02:53;8.40;40.30
7902;DHT22;3996;49.674;10.716;2023-12-20T09:05:19;8.30;40.60
7902;DHT22;3996;49.674;10.716;2023-12-20T09:07:44;8.20;39.90
7902;DHT22;3996;49.674;10.716;2023-12-20T09:10:10;8.10;40.00
7902;DHT22;3996;49.674;10.716;2023-12-20T09:12:35;7.90;40.70
7902;DHT22;3996;49.674;10.716;2023-12-20T09:15:03;7.90;41.30
7902;DHT22;3996;49.674;10.716;2023-12-20T09:17:29;7.90;39.70
7902;DHT22;3996;49.674;10.716;2023-12-20T09:19:54;8.10;38.90
7902;DHT22;3996;49.674;10.716;2023-12-20T09:22:20;8.40;37.70
7902;DHT22;3996;49.674;10.716;2023-12-20T09:24:45;8.70;35.30
7902;DHT22;3996;49.674;10.716;2023-12-20T09:27:11;9.00;33.30
7902;DHT22;3996;49.674;10.716;2023-12-20T09:29:36;9.00;33.10
7902;DHT22;3996;49.674;10.716;2023-12-20T09:32:01;8.90;33.60
7902;DHT22;3996;49.674;10.716;2023-12-20T09:34:27;9.20;31.80
7902;DHT22;3996;49.674;10.716;2023-12-20T09:36:53;9.20;29.90
7902;DHT22;3996;49.674;10.716;2023-12-20T09:39:19;9.10;31.70
7902;DHT22;3996;49.674;10.716;2023-12-20T09:41:48;9.20;30.40
7902;DHT22;3996;49.674;10.716;2023-12-20T09:44:15;9.10;30.80
7902;DHT22;3996;49.674;10.716;2023-12-20T09:46:43;9.10;30.40
7902;DHT22;3996;49.674;10.716;2023-12-20T09:49:09;9.30;30.20
7902;DHT22;3996;49.674;10.716;2023-12-20T09:51:35;9.20;29.20
7902;DHT22;3996;49.674;10.716;2023-12-20T09:54:02;9.00;29.80
7902;DHT22;3996;49.674;10.716;2023-12-20T09:56:28;8.80;30.70
7902;DHT22;3996;49.674;10.716;2023-12-20T09:58:54;8.90;30.80
7902;DHT22;3996;49.674;10.716;2023-12-20T10:01:20;8.80;30.40
7902;DHT22;3996;49.674;10.716;2023-12-20T10:03:46;8.90;32.50
7902;DHT22;3996;49.674;10.716;2023-12-20T10:06:11;8.50;33.40
7902;DHT22;3996;49.674;10.716;2023-12-20T10:08:37;8.20;35.10
7902;DHT22;3996;49.674;10.716;2023-12-20T10:11:03;8.00;34.80
7902;DHT22;3996;49.674;10.716;2023-12-20T10:13:29;7.70;35.00
7902;DHT22;3996;49.674;10.716;2023-12-20T10:15:55;7.50;36.80
7902;DHT22;3996;49.674;10.716;2023-12-20T10:18:21;7.50;37.00
7902;DHT22;3996;49.674;10.716;2023-12-20T10:20:46;7.70;38.10
7902;DHT22;3996;49.674;10.716;2023-12-20T10:23:12;7.80;35.90
7902;DHT22;3996;49.674;10.716;2023-12-20T10:25:39;7.70;35.80
7902;DHT22;3996;49.674;10.716;2023-12-20T10:28:08;7.70;35.60
7902;DHT22;3996;49.674;10.716;2023-12-20T10:30:34;7.60;36.80
7902;DHT22;3996;49.674;10.716;2023-12-20T10:32:59;7.60;37.20
7902;DHT22;3996;49.674;10.716;2023-12-20T10:35:25;7.80;36.30
7902;DHT22;3996;49.674;10.716;2023-12-20T10:37:52;8.00;37.40
7902;DHT22;3996;49.674;10.716;2023-12-20T10:40:20;8.30;36.00
7902;DHT22;3996;49.674;10.716;2023-12-20T10:42:46;8.60;35.30
7902;DHT22;3996;49.674;10.716;2023-12-20T10:45:12;8.80;33.80
7902;DHT22;3996;49.674;10.716;2023-12-20T10:47:38;8.80;32.50
7902;DHT22;3996;49.674;10.716;2023-12-20T10:50:05;8.50;31.70
7902;DHT22;3996;49.674;10.716;2023-12-20T10:52:31;8.30;33.10
7902;DHT22;3996;49.674;10.716;2023-12-20T10:54:57;8.10;33.20
7902;DHT22;3996;49.674;10.716;2023-12-20T10:57:23;8.00;33.70
7902;DHT22;3996;49.674;10.716;2023-12-20T10:59:52;7.90;35.50
7902;DHT22;3996;49.674;10.716;2023-12-20T11:02:18;7.70;34.00
7902;DHT22;3996;49.674;10.716;2023-12-20T11:04:47;7.60;35.20
7902;DHT22;3996;49.674;10.716;2023-12-20T11:07:17;7.50;34.60
7902;DHT22;3996;49.674;10.716;2023-12-20T11:09:47;7.40;35.00
7902;DHT22;3996;49.674;10.716;2023-12-20T11:12:24;7.40;36.00
7902;DHT22;3996;49.674;10.716;2023-12-20T11:14:53;7.30;35.00
7902;DHT22;3996;49.674;10.716;2023-12-20T11:17:19;7.30;36.30
7902;DHT22;3996;49.674;10.716;2023-12-20T11:22:32;7.20;36.30
7902;DHT22;3996;49.674;10.716;2023-12-20T11:25:08;7.20;36.50
7902;DHT22;3996;49.674;10.716;2023-12-20T11:27:34;7.10;37.10
7902;DHT22;3996;49.674;10.716;2023-12-20T11:30:00;7.20;37.50
7902;DHT22;3996;49.674;10.716;2023-12-20T11:32:27;7.20;37.70
7902;DHT22;3996;49.674;10.716;2023-12-20T11:35:00;7.30;36.00
7902;DHT22;3996;49.674;10.716;2023-12-20T11:37:29;7.30;36.90
7902;DHT22;3996;49.674;10.716;2023-12-20T11:40:02;7.30;36.10
7902;DHT22;3996;49.674;10.716;2023-12-20T11:42:28;7.30;36.10
7902;DHT22;3996;49.674;10.716;2023-12-20T11:44:53;7.30;36.10
7902;DHT22;3996;49.674;10.716;2023-12-20T11:47:18;7.20;37.00
7902;DHT22;3996;49.674;10.716;2023-12-20T11:49:48;7.30;36.30
7902;DHT22;3996;49.674;10.716;2023-12-20T11:52:14;7.20;36.50
7902;DHT22;3996;49.674;10.716;2023-12-20T11:54:39;7.20;37.10
7902;DHT22;3996;49.674;10.716;2023-12-20T11:57:05;7.20;37.40
7902;DHT22;3996;49.674;10.716;2023-12-20T11:59:30;7.10;37.60
7902;DHT22;3996;49.674;10.716;2023-12-20T12:01:56;7.10;37.60
7902;DHT22;3996;49.674;10.716;2023-12-20T12:04:26;7.10;38.10
7902;DHT22;3996;49.674;10.716;2023-12-20T12:06:51;7.10;39.00
7902;DHT22;3996;49.674;10.716;2023-12-20T12:09:17;7.00;38.90
7902;DHT22;3996;49.674;10.716;2023-12-20T12:11:42;7.00;40.60
7902;DHT22;3996;49.674;10.716;2023-12-20T12:14:08;7.00;40.90
7902;DHT22;3996;49.674;10.716;2023-12-20T12:16:34;6.90;40.00
7902;DHT22;3996;49.674;10.716;2023-12-20T12:18:59;6.90;40.70
7902;DHT22;3996;49.674;10.716;2023-12-20T12:21:25;6.90;41.70
7902;DHT22;3996;49.674;10.716;2023-12-20T12:23:51;6.80;41.30
7902;DHT22;3996;49.674;10.716;2023-12-20T12:26:16;6.80;41.80
7902;DHT22;3996;49.674;10.716;2023-12-20T12:28:42;6.80;41.70
7902;DHT22;3996;49.674;10.716;2023-12-20T12:31:08;6.80;42.30
7902;DHT22;3996;49.674;10.716;2023-12-20T12:33:34;6.80;41.40
7902;DHT22;3996;49.674;10.716;2023-12-20T12:36:03;6.80;40.70
7902;DHT22;3996;49.674;10.716;2023-12-20T12:38:30;6.80;40.20
7902;DHT22;3996;49.674;10.716;2023-12-20T12:40:56;6.80;40.40
7902;DHT22;3996;49.674;10.716;2023-12-20T12:43:21;6.80;40.80
7902;DHT22;3996;49.674;10.716;2023-12-20T12:45:48;6.80;40.50
7902;DHT22;3996;49.674;10.716;2023-12-20T12:48:14;6.80;39.80
7902;DHT22;3996;49.674;10.716;2023-12-20T12:50:39;6.80;39.80
7902;DHT22;3996;49.674;10.716;2023-12-20T12:53:05;6.80;39.70
7902;DHT22;3996;49.674;10.716;2023-12-20T12:55:30;6.80;39.90
7902;DHT22;3996;49.674;10.716;2023-12-20T12:57:56;6.80;40.30
7902;DHT22;3996;49.674;10.716;2023-12-20T13:00:21;6.90;40.90
7902;DHT22;3996;49.674;10.716;2023-12-20T13:02:47;6.90;40.00
7902;DHT22;3996;49.674;10.716;2023-12-20T13:05:12;6.80;41.00
7902;DHT22;3996;49.674;10.716;2023-12-20T13:07:38;6.80;42.20
7902;DHT22;3996;49.674;10.716;2023-12-20T13:10:04;6.80;42.80
7902;DHT22;3996;49.674;10.716;2023-12-20T13:12:31;6.80;43.10
7902;DHT22;3996;49.674;10.716;2023-12-20T13:14:57;6.70;43.00
7902;DHT22;3996;49.674;10.716;2023-12-20T13:17:23;6.70;42.80
7902;DHT22;3996;49.674;10.716;2023-12-20T13:19:48;6.70;41.60
7902;DHT22;3996;49.674;10.716;2023-12-20T13:22:15;6.70;43.40
7902;DHT22;3996;49.674;10.716;2023-12-20T13:24:40;6.70;41.60
7902;DHT22;3996;49.674;10.716;2023-12-20T13:27:06;6.60;42.10
7902;DHT22;3996;49.674;10.716;2023-12-20T13:29:31;6.70;41.20
7902;DHT22;3996;49.674;10.716;2023-12-20T13:31:57;6.60;42.00
7902;DHT22;3996;49.674;10.716;2023-12-20T13:34:23;6.60;41.40
7902;DHT22;3996;49.674;10.716;2023-12-20T13:36:48;6.60;40.90
7902;DHT22;3996;49.674;10.716;2023-12-20T13:39:16;6.60;40.60
7902;DHT22;3996;49.674;10.716;2023-12-20T13:41:42;6.60;40.50
7902;DHT22;3996;49.674;10.716;2023-12-20T13:44:07;6.60;41.10
7902;DHT22;3996;49.674;10.716;2023-12-20T13:46:33;6.60;40.00
7902;DHT22;3996;49.674;10.716;2023-12-20T13:48:58;6.50;39.50
7902;DHT22;3996;49.674;10.716;2023-12-20T13:51:24;6.50;39.00
7902;DHT22;3996;49.674;10.716;2023-12-20T13:53:50;6.50;40.00
7902;DHT22;3996;49.674;10.716;2023-12-20T13:56:15;6.50;40.30
7902;DHT22;3996;49.674;10.716;2023-12-20T13:58:41;6.50;39.40
7902;DHT22;3996;49.674;10.716;2023-12-20T14:01:09;6.40;40.10
7902;DHT22;3996;49.674;10.716;2023-12-20T14:03:36;6.50;40.10
7902;DHT22;3996;49.674;10.716;2023-12-20T14:06:01;6.50;39.10
7902;DHT22;3996;49.674;10.716;2023-12-20T14:08:27;6.50;39.10
7902;DHT22;3996;49.674;10.716;2023-12-20T14:10:53;6.50;39.00
7902;DHT22;3996;49.674;10.716;2023-12-20T14:13:18;6.40;39.20
7902;DHT22;3996;49.674;10.716;2023-12-20T14:15:44;6.50;39.10
7902;DHT22;3996;49.674;10.716;2023-12-20T14:18:09;6.40;39.20
7902;DHT22;3996;49.674;10.716;2023-12-20T14:20:35;6.40;39.70
7902;DHT22;3996;49.674;10.716;2023-12-20T14:23:01;6.40;39.40
7902;DHT22;3996;49.674;10.716;2023-12-20T14:25:27;6.40;38.90
7902;DHT22;3996;49.674;10.716;2023-12-20T14:27:52;6.50;39.00
7902;DHT22;3996;49.674;10.716;2023-12-20T14:30:18;6.50;38.50
7902;DHT22;3996;49.674;10.716;2023-12-20T14:32:43;6.40;39.00
7902;DHT22;3996;49.674;10.716;2023-12-20T14:35:09;6.40;39.30
7902;DHT22;3996;49.674;10.716;2023-12-20T14:37:35;6.30;40.10
7902;DHT22;3996;49.674;10.716;2023-12-20T14:40:01;6.40;40.10
7902;DHT22;3996;49.674;10.716;2023-12-20T14:42:27;6.40;40.20
7902;DHT22;3996;49.674;10.716;2023-12-20T14:44:53;6.30;41.00
7902;DHT22;3996;49.674;10.716;2023-12-20T14:47:19;6.30;40.30
7902;DHT22;3996;49.674;10.716;2023-12-20T14:49:45;6.20;40.80
7902;DHT22;3996;49.674;10.716;2023-12-20T14:52:13;6.20;40.80
7902;DHT22;3996;49.674;10.716;2023-12-20T14:54:38;6.20;41.30
7902;DHT22;3996;49.674;10.716;2023-12-20T14:57:04;6.20;41.20
7902;DHT22;3996;49.674;10.716;2023-12-20T14:59:29;6.10;41.40
7902;DHT22;3996;49.674;10.716;2023-12-20T15:01:55;6.10;40.90
7902;DHT22;3996;49.674;10.716;2023-12-20T15:04:20;6.20;40.30
7902;DHT22;3996;49.674;10.716;2023-12-20T15:06:54;6.20;40.40
7902;DHT22;3996;49.674;10.716;2023-12-20T15:09:20;6.10;40.80
7902;DHT22;3996;49.674;10.716;2023-12-20T15:11:45;6.20;41.10
7902;DHT22;3996;49.674;10.716;2023-12-20T15:14:11;6.10;40.80
7902;DHT22;3996;49.674;10.716;2023-12-20T15:16:39;6.20;41.20
7902;DHT22;3996;49.674;10.716;2023-12-20T15:19:05;6.10;41.00
7902;DHT22;3996;49.674;10.716;2023-12-20T15:21:31;6.10;41.70
7902;DHT22;3996;49.674;10.716;2023-12-20T15:23:59;6.00;41.80
7902;DHT22;3996;49.674;10.716;2023-12-20T15:26:33;6.00;41.40
7902;DHT22;3996;49.674;10.716;2023-12-20T15:28:59;6.00;41.40
7902;DHT22;3996;49.674;10.716;2023-12-20T15:31:26;6.10;41.30
7902;DHT22;3996;49.674;10.716;2023-12-20T15:33:52;6.00;41.70
7902;DHT22;3996;49.674;10.716;2023-12-20T15:36:18;6.10;41.30
7902;DHT22;3996;49.674;10.716;2023-12-20T15:38:44;6.00;41.40
7902;DHT22;3996;49.674;10.716;2023-12-20T15:41:09;6.00;41.20
7902;DHT22;3996;49.674;10.716;2023-12-20T15:43:41;6.00;41.20
7902;DHT22;3996;49.674;10.716;2023-12-20T15:46:09;6.00;41.50
7902;DHT22;3996;49.674;10.716;2023-12-20T15:48:34;6.10;41.00
7902;DHT22;3996;49.674;10.716;2023-12-20T15:51:04;6.10;41.80
7902;DHT22;3996;49.674;10.716;2023-12-20T15:53:29;6.00;41.60
7902;DHT22;3996;49.674;10.716;2023-12-20T15:55:55;6.00;40.90
7902;DHT22;3996;49.674;10.716;2023-12-20T15:58:20;6.10;41.10